Four Wishes — ZCNL7 — position and weather

sailwx.info

Track history (hours):
 
Tides and Currents Weather Stations Pressure Air Temp Water Temp Dewpoint Dewpoint Depression Visibility Wind Speed Wind Dir Waves Ship Positions

Four Wishes

Last reported at 2014-Jul-26 10:26 UTC. Time now 2014-Jul-26 15:12 UTC.
Position N 42°02' W 070°11'.

Length 44 m; draft 2.2 m.

Type: Pleasure craft. MMSI: 319083000.

Date/timePositionNaut miles runAvg speedWind from/ knotsBaromVisibWave heightAir tempDewpointWater temp
2014-Jul-26 10:26N 42°02' W 070°11'0 0.0
2014-Jul-26 09:05N 42°02' W 070°11'0 0.0
2014-Jul-26 08:32N 42°02' W 070°11'0 0.0
2014-Jul-26 07:32N 42°02' W 070°11'0 0.0
2014-Jul-26 06:28N 42°02' W 070°11'0 0.0
2014-Jul-26 05:32N 42°02' W 070°11'0 0.0
2014-Jul-26 04:14N 42°02' W 070°11'0 0.0
2014-Jul-26 03:29N 42°02' W 070°11'31 3.4
2014-Jul-25 18:11N 41°35' W 069°51'910.2
2014-Jul-25 17:18N 41°26' W 069°53'7 9.1
2014-Jul-25 16:31N 41°25' W 070°02'8 2.7
2014-Jul-25 13:33N 41°17' W 070°06'0 0.0
2014-Jul-25 12:33N 41°17' W 070°06'0 0.0
2014-Jul-25 11:33N 41°17' W 070°06'0 0.0
2014-Jul-25 10:33N 41°17' W 070°06'0 0.0
2014-Jul-25 09:09N 41°17' W 070°06'0 0.0
2014-Jul-25 08:30N 41°17' W 070°06'0 0.0
2014-Jul-25 06:33N 41°17' W 070°06'0 0.0
2014-Jul-25 05:06N 41°17' W 070°06'0 0.0
2014-Jul-25 04:30N 41°17' W 070°06'0 0.0
2014-Jul-25 01:24N 41°17' W 070°06'0 0.0
2014-Jul-24 10:16N 41°17' W 070°06'0 0.0
2014-Jul-24 09:31N 41°17' W 070°06'0 0.0
2014-Jul-24 04:13N 41°17' W 070°06'0 0.0
2014-Jul-24 03:31N 41°17' W 070°06'0 0.0
2014-Jul-24 02:31N 41°17' W 070°06'0 0.0
2014-Jul-24 01:31N 41°17' W 070°06'0 0.0
2014-Jul-24 00:31N 41°17' W 070°06'0 0.0
2014-Jul-23 23:31N 41°17' W 070°06'0 0.0
2014-Jul-23 22:28N 41°17' W 070°06'1 1.0
2014-Jul-23 21:33N 41°18' W 070°06'8 8.3
2014-Jul-23 20:33N 41°25' W 070°12'1111.1
2014-Jul-23 19:33N 41°27' W 070°26'7 0.3
2014-Jul-22 21:13N 41°29' W 070°36'913.6
2014-Jul-22 20:34N 41°26' W 070°47'1212.3
2014-Jul-22 19:34N 41°24' W 071°03'1212.1
2014-Jul-22 18:34N 41°25' W 071°19'4 0.6
2014-Jul-22 12:14N 41°29' W 071°19'0 0.0
2014-Jul-22 11:20N 41°29' W 071°19'0 0.0
2014-Jul-22 10:32N 41°29' W 071°19'0 0.0
2014-Jul-22 09:29N 41°29' W 071°19'0 0.0
2014-Jul-22 08:32N 41°29' W 071°19'  
2014-Jul-18 17:34N 41°04' W 071°56'0 0.0
2014-Jul-18 16:33N 41°04' W 071°56'0 0.0
2014-Jul-18 15:33N 41°04' W 071°56'0 0.0
2014-Jul-18 14:33N 41°04' W 071°56'0 0.0
2014-Jul-18 13:33N 41°04' W 071°56'0 0.0
2014-Jul-18 12:33N 41°04' W 071°56'0 0.0
2014-Jul-18 11:34N 41°04' W 071°56'0 0.0
2014-Jul-18 10:34N 41°04' W 071°56'0 0.0
2014-Jul-18 09:33N 41°04' W 071°56'0 0.0
2014-Jul-18 08:34N 41°04' W 071°56'0 0.0
2014-Jul-18 07:33N 41°04' W 071°56'0 0.0
2014-Jul-18 06:34N 41°04' W 071°56'0 0.0
2014-Jul-18 05:33N 41°04' W 071°56'0 0.0
2014-Jul-18 04:34N 41°04' W 071°56'0 0.0
2014-Jul-18 03:33N 41°04' W 071°56'0 0.0
2014-Jul-18 02:34N 41°04' W 071°56'0 0.0
2014-Jul-18 01:33N 41°04' W 071°56'0 0.0
2014-Jul-18 00:34N 41°04' W 071°56'0 0.0
2014-Jul-17 23:33N 41°04' W 071°56'0 0.0
2014-Jul-17 22:33N 41°04' W 071°56'0 0.0
2014-Jul-17 21:33N 41°04' W 071°56'0 0.0
2014-Jul-17 20:33N 41°04' W 071°56'0 0.0
2014-Jul-17 19:33N 41°04' W 071°56'0 0.0
2014-Jul-17 18:34N 41°04' W 071°56'0 0.0
2014-Jul-17 17:34N 41°04' W 071°56'0 0.0
2014-Jul-17 16:33N 41°04' W 071°56'0 0.0
2014-Jul-17 15:34N 41°04' W 071°56'0 0.0
2014-Jul-17 14:34N 41°04' W 071°56'0 0.0
2014-Jul-17 13:34N 41°04' W 071°56'0 0.0
2014-Jul-17 12:33N 41°04' W 071°56'0 0.0
2014-Jul-17 11:33N 41°04' W 071°56'0 0.0
2014-Jul-17 10:34N 41°04' W 071°56'0 0.0
2014-Jul-17 09:34N 41°04' W 071°56'0 0.0
2014-Jul-17 08:34N 41°04' W 071°56'0 0.0
2014-Jul-17 07:34N 41°04' W 071°56'0 0.0
2014-Jul-17 06:33N 41°04' W 071°56'0 0.0
2014-Jul-17 05:34N 41°04' W 071°56'0 0.0
2014-Jul-17 04:33N 41°04' W 071°56'0 0.0
2014-Jul-17 03:33N 41°04' W 071°56'0 0.0
2014-Jul-17 02:34N 41°04' W 071°56'0 0.0
2014-Jul-17 01:34N 41°04' W 071°56'0 0.0
2014-Jul-17 00:33N 41°04' W 071°56'0 0.0
2014-Jul-16 23:33N 41°04' W 071°56'0 0.0
2014-Jul-16 22:34N 41°04' W 071°56'0 0.0
2014-Jul-16 21:34N 41°04' W 071°56'0 0.0
2014-Jul-16 20:34N 41°04' W 071°56'0 0.0
2014-Jul-16 19:34N 41°04' W 071°56'0 0.0
2014-Jul-16 18:34N 41°04' W 071°56'0 0.0
2014-Jul-16 17:33N 41°04' W 071°56'0 0.0
2014-Jul-16 16:33N 41°04' W 071°56'0 0.0
2014-Jul-16 15:34N 41°04' W 071°56'0 0.0
2014-Jul-16 14:33N 41°04' W 071°56'0 0.0
2014-Jul-16 13:33N 41°04' W 071°56'0 0.0
2014-Jul-16 12:34N 41°04' W 071°56'0 0.0
2014-Jul-16 11:33N 41°04' W 071°56'0 0.0
2014-Jul-16 10:33N 41°04' W 071°56'  
Track history (hours):
 
Tides and Currents Weather Stations Pressure Air Temp Water Temp Dewpoint Dewpoint Depression Visibility Wind Speed Wind Dir Waves Ship Positions

Four Wishes

Last reported at 2014-Jul-26 10:26 UTC. Time now 2014-Jul-26 15:12 UTC.
Position N 42°02' W 070°11'.

Length 44 m; draft 2.2 m.

Type: Pleasure craft. MMSI: 319083000.

Date/timePositionNaut miles runAvg speedWind from/ knotsBaromVisibWave heightAir tempDewpointWater temp
2014-Jul-26 10:26N 42°02' W 070°11'0 0.0
2014-Jul-26 09:05N 42°02' W 070°11'0 0.0
2014-Jul-26 08:32N 42°02' W 070°11'0 0.0
2014-Jul-26 07:32N 42°02' W 070°11'0 0.0
2014-Jul-26 06:28N 42°02' W 070°11'0 0.0
2014-Jul-26 05:32N 42°02' W 070°11'0 0.0
2014-Jul-26 04:14N 42°02' W 070°11'0 0.0
2014-Jul-26 03:29N 42°02' W 070°11'31 3.4
2014-Jul-25 18:11N 41°35' W 069°51'910.2
2014-Jul-25 17:18N 41°26' W 069°53'7 9.1
2014-Jul-25 16:31N 41°25' W 070°02'8 2.7
2014-Jul-25 13:33N 41°17' W 070°06'0 0.0
2014-Jul-25 12:33N 41°17' W 070°06'0 0.0
2014-Jul-25 11:33N 41°17' W 070°06'0 0.0
2014-Jul-25 10:33N 41°17' W 070°06'0 0.0
2014-Jul-25 09:09N 41°17' W 070°06'0 0.0
2014-Jul-25 08:30N 41°17' W 070°06'0 0.0
2014-Jul-25 06:33N 41°17' W 070°06'0 0.0
2014-Jul-25 05:06N 41°17' W 070°06'0 0.0
2014-Jul-25 04:30N 41°17' W 070°06'0 0.0
2014-Jul-25 01:24N 41°17' W 070°06'0 0.0
2014-Jul-24 10:16N 41°17' W 070°06'0 0.0
2014-Jul-24 09:31N 41°17' W 070°06'0 0.0
2014-Jul-24 04:13N 41°17' W 070°06'0 0.0
2014-Jul-24 03:31N 41°17' W 070°06'0 0.0
2014-Jul-24 02:31N 41°17' W 070°06'0 0.0
2014-Jul-24 01:31N 41°17' W 070°06'0 0.0
2014-Jul-24 00:31N 41°17' W 070°06'0 0.0
2014-Jul-23 23:31N 41°17' W 070°06'0 0.0
2014-Jul-23 22:28N 41°17' W 070°06'1 1.0
2014-Jul-23 21:33N 41°18' W 070°06'8 8.3
2014-Jul-23 20:33N 41°25' W 070°12'1111.1
2014-Jul-23 19:33N 41°27' W 070°26'7 0.3
2014-Jul-22 21:13N 41°29' W 070°36'913.6
2014-Jul-22 20:34N 41°26' W 070°47'1212.3
2014-Jul-22 19:34N 41°24' W 071°03'1212.1
2014-Jul-22 18:34N 41°25' W 071°19'4 0.6
2014-Jul-22 12:14N 41°29' W 071°19'0 0.0
2014-Jul-22 11:20N 41°29' W 071°19'0 0.0
2014-Jul-22 10:32N 41°29' W 071°19'0 0.0
2014-Jul-22 09:29N 41°29' W 071°19'0 0.0
2014-Jul-22 08:32N 41°29' W 071°19'  
2014-Jul-18 17:34N 41°04' W 071°56'0 0.0
2014-Jul-18 16:33N 41°04' W 071°56'0 0.0
2014-Jul-18 15:33N 41°04' W 071°56'0 0.0
2014-Jul-18 14:33N 41°04' W 071°56'0 0.0
2014-Jul-18 13:33N 41°04' W 071°56'0 0.0
2014-Jul-18 12:33N 41°04' W 071°56'0 0.0
2014-Jul-18 11:34N 41°04' W 071°56'0 0.0
2014-Jul-18 10:34N 41°04' W 071°56'0 0.0
2014-Jul-18 09:33N 41°04' W 071°56'0 0.0
2014-Jul-18 08:34N 41°04' W 071°56'0 0.0
2014-Jul-18 07:33N 41°04' W 071°56'0 0.0
2014-Jul-18 06:34N 41°04' W 071°56'0 0.0
2014-Jul-18 05:33N 41°04' W 071°56'0 0.0
2014-Jul-18 04:34N 41°04' W 071°56'0 0.0
2014-Jul-18 03:33N 41°04' W 071°56'0 0.0
2014-Jul-18 02:34N 41°04' W 071°56'0 0.0
2014-Jul-18 01:33N 41°04' W 071°56'0 0.0
2014-Jul-18 00:34N 41°04' W 071°56'0 0.0
2014-Jul-17 23:33N 41°04' W 071°56'0 0.0
2014-Jul-17 22:33N 41°04' W 071°56'0 0.0
2014-Jul-17 21:33N 41°04' W 071°56'0 0.0
2014-Jul-17 20:33N 41°04' W 071°56'0 0.0
2014-Jul-17 19:33N 41°04' W 071°56'0 0.0
2014-Jul-17 18:34N 41°04' W 071°56'0 0.0
2014-Jul-17 17:34N 41°04' W 071°56'0 0.0
2014-Jul-17 16:33N 41°04' W 071°56'0 0.0
2014-Jul-17 15:34N 41°04' W 071°56'0 0.0
2014-Jul-17 14:34N 41°04' W 071°56'0 0.0
2014-Jul-17 13:34N 41°04' W 071°56'0 0.0
2014-Jul-17 12:33N 41°04' W 071°56'0 0.0
2014-Jul-17 11:33N 41°04' W 071°56'0 0.0
2014-Jul-17 10:34N 41°04' W 071°56'0 0.0
2014-Jul-17 09:34N 41°04' W 071°56'0 0.0
2014-Jul-17 08:34N 41°04' W 071°56'0 0.0
2014-Jul-17 07:34N 41°04' W 071°56'0 0.0
2014-Jul-17 06:33N 41°04' W 071°56'0 0.0
2014-Jul-17 05:34N 41°04' W 071°56'0 0.0
2014-Jul-17 04:33N 41°04' W 071°56'0 0.0
2014-Jul-17 03:33N 41°04' W 071°56'0 0.0
2014-Jul-17 02:34N 41°04' W 071°56'0 0.0
2014-Jul-17 01:34N 41°04' W 071°56'0 0.0
2014-Jul-17 00:33N 41°04' W 071°56'0 0.0
2014-Jul-16 23:33N 41°04' W 071°56'0 0.0
2014-Jul-16 22:34N 41°04' W 071°56'0 0.0
2014-Jul-16 21:34N 41°04' W 071°56'0 0.0
2014-Jul-16 20:34N 41°04' W 071°56'0 0.0
2014-Jul-16 19:34N 41°04' W 071°56'0 0.0
2014-Jul-16 18:34N 41°04' W 071°56'0 0.0
2014-Jul-16 17:33N 41°04' W 071°56'0 0.0
2014-Jul-16 16:33N 41°04' W 071°56'0 0.0
2014-Jul-16 15:34N 41°04' W 071°56'0 0.0
2014-Jul-16 14:33N 41°04' W 071°56'0 0.0
2014-Jul-16 13:33N 41°04' W 071°56'0 0.0
2014-Jul-16 12:34N 41°04' W 071°56'0 0.0
2014-Jul-16 11:33N 41°04' W 071°56'0 0.0
2014-Jul-16 10:33N 41°04' W 071°56'  

Dump ship's entire track history